San Andreas, California
Current Conditions -  °F | °C
As of 2:35 PM on Tuesday 21 Oct 2014 (Local Time) from KO22 Reporting Station
Clear Clear  
Wind Chill: 68°   Ceiling: Unl
Heat Index: 68°   Visibility: 10mi
Dew Point: 32°   Wind: 7mph
Humidity: 26%   Direction: 270°W
Pressure: 30"   Gusts: NA
Location:  38.2°N, 120.68°W
Report Text: KO22 212135Z AUTO 27006KT 10SM CLR 20/00 A3000 RMK AO1
Loading
Personal Weather Stations






























Interactive Weather Map
Tropical Storm Tracking
New forecast layout! Learn more

10-Day Weather Forecast

Advertisements
Track Severe Weather on mobile